Time;durP1;ratioP1;P1;durP2;ratioP2;P2;SDS_P1;SDS_P2;PMS_P1;PMS_P2;Temp;Humidity;BMP_temperature;BMP_pressure;BME280_temperature;BME280_humidity;BME280_pressure;Samples;Min_cycle;Max_cycle;Signal;HPM_P1;HPM_P2
2022/08/08 00:00:04;;;;;;;4.40;3.60;;;18.10;1.00;;;;;;5106049;27;20464;-81
2022/08/08 00:02:41;;;;;;;3.47;3.17;;;18.10;1.00;;;;;;5101774;27;20425;-78
2022/08/08 00:05:23;;;;;;;3.87;3.53;;;18.10;1.00;;;;;;5102059;27;20515;-80
2022/08/08 00:08:05;;;;;;;4.40;4.00;;;18.00;1.00;;;;;;5107057;27;20466;-79
2022/08/08 00:10:43;;;;;;;4.27;3.87;;;18.00;1.00;;;;;;5101843;27;20538;-81
2022/08/08 00:13:22;;;;;;;5.33;3.83;;;18.00;1.00;;;;;;5102391;27;20462;-78
2022/08/08 00:15:59;;;;;;;4.37;3.97;;;18.00;1.00;;;;;;5103314;28;20470;-80
2022/08/08 00:18:36;;;;;;;4.00;3.47;;;17.90;1.00;;;;;;5107420;27;20516;-76
2022/08/08 00:21:05;;;;;;;3.43;2.90;;;17.90;1.00;;;;;;5105444;27;20952;-78
2022/08/08 00:23:40;;;;;;;5.77;3.47;;;17.80;1.00;;;;;;5104698;27;20426;-81
2022/08/08 00:26:13;;;;;;;4.23;3.70;;;17.80;1.00;;;;;;5103066;27;20472;-80
2022/08/08 00:28:46;;;;;;;5.20;3.13;;;17.80;1.00;;;;;;5101484;27;20472;-77
2022/08/08 00:31:19;;;;;;;3.27;2.97;;;17.80;1.00;;;;;;5104310;27;20436;-80
2022/08/08 00:35:09;;;;;;;4.13;3.03;;;17.80;1.00;;;;;;5101626;27;20457;-81
2022/08/08 00:36:54;;;;;;;3.50;3.20;;;17.70;1.00;;;;;;5101470;27;20461;-81
2022/08/08 00:39:34;;;;;;;3.90;3.50;;;17.80;1.00;;;;;;5106523;27;21274;-82
2022/08/08 00:42:39;;;;;;;4.03;3.57;;;17.70;1.00;;;;;;5100894;27;20458;-77
2022/08/08 00:45:53;;;;;;;4.00;3.10;;;17.60;1.00;;;;;;5077408;27;20546;-77
2022/08/08 00:48:55;;;;;;;4.40;3.40;;;17.60;1.00;;;;;;5105005;27;20461;-82
2022/08/08 00:51:56;;;;;;;4.03;3.30;;;17.60;1.00;;;;;;5098110;27;20463;-78
2022/08/08 00:54:59;;;;;;;3.87;3.57;;;17.50;1.00;;;;;;5103527;27;20487;-77
2022/08/08 00:58:14;;;;;;;3.70;3.40;;;17.50;1.00;;;;;;5102691;27;20453;-81
2022/08/08 01:00:54;;;;;;;3.57;3.27;;;17.50;1.00;;;;;;5096152;27;20454;-80
2022/08/08 01:03:47;;;;;;;3.63;3.33;;;17.40;1.00;;;;;;5099037;27;20420;-81
2022/08/08 01:06:44;;;;;;;3.63;3.30;;;17.40;1.00;;;;;;5090574;27;20441;-81
2022/08/08 01:10:08;;;;;;;4.40;3.80;;;17.30;1.00;;;;;;5103643;27;20459;-81
2022/08/08 01:13:22;;;;;;;3.93;3.13;;;17.20;1.00;;;;;;5101738;27;20557;-78
2022/08/08 01:16:17;;;;;;;3.93;3.50;;;17.20;1.00;;;;;;5104116;27;20473;-77
2022/08/08 01:19:34;;;;;;;4.53;4.13;;;17.20;1.00;;;;;;5101484;27;20449;-80
2022/08/08 01:22:34;;;;;;;4.13;3.73;;;17.20;1.00;;;;;;5102447;27;20528;-80
2022/08/08 01:25:35;;;;;;;4.13;3.73;;;17.10;1.00;;;;;;5104505;28;20480;-81
2022/08/08 01:28:21;;;;;;;3.97;3.63;;;17.10;1.00;;;;;;5108130;27;20929;-80
2022/08/08 01:31:42;;;;;;;3.83;3.53;;;17.00;1.00;;;;;;5106129;27;20462;-82
2022/08/08 01:34:55;;;;;;;5.73;4.03;;;17.00;1.00;;;;;;5106817;27;20455;-78
2022/08/08 01:38:00;;;;;;;6.00;4.20;;;17.00;1.00;;;;;;5104874;27;20504;-78
2022/08/08 01:40:35;;;;;;;4.83;3.50;;;17.00;1.00;;;;;;5104323;27;20469;-80
2022/08/08 01:43:16;;;;;;;4.10;3.70;;;16.90;1.00;;;;;;5105136;27;20980;-81
2022/08/08 01:45:55;;;;;;;5.33;4.13;;;16.90;1.00;;;;;;5106449;27;20462;-78
2022/08/08 01:48:38;;;;;;;4.70;3.60;;;16.90;1.00;;;;;;5112044;27;20453;-81
2022/08/08 01:51:35;;;;;;;3.80;3.50;;;16.80;1.00;;;;;;5105082;27;20439;-77
2022/08/08 01:54:15;;;;;;;5.57;3.90;;;16.80;1.00;;;;;;5099629;27;20543;-80
2022/08/08 01:56:55;;;;;;;4.27;3.63;;;16.80;1.00;;;;;;5105871;27;20451;-78
2022/08/08 01:59:47;;;;;;;4.23;3.83;;;16.70;1.00;;;;;;5111461;27;20449;-77
2022/08/08 02:02:28;;;;;;;3.80;3.50;;;16.70;1.00;;;;;;5108518;27;20456;-81
2022/08/08 02:05:05;;;;;;;4.10;3.80;;;16.60;1.00;;;;;;5109746;27;20441;-77
2022/08/08 02:07:48;;;;;;;5.23;3.70;;;16.60;1.00;;;;;;5108715;27;20436;-77
2022/08/08 02:10:45;;;;;;;4.57;3.47;;;16.60;1.00;;;;;;5104366;27;20490;-77
2022/08/08 02:13:21;;;;;;;4.00;3.60;;;16.60;1.00;;;;;;5109518;27;20482;-77
2022/08/08 02:16:07;;;;;;;3.90;3.57;;;16.60;1.00;;;;;;5104198;27;20467;-78
2022/08/08 02:18:44;;;;;;;5.27;4.00;;;16.50;1.00;;;;;;5106991;27;20448;-81
2022/08/08 02:24:19;;;;;;;5.80;4.80;;;16.50;1.00;;;;;;5104558;27;20450;-81
2022/08/08 02:26:55;;;;;;;3.73;3.43;;;16.50;1.00;;;;;;5106962;27;20454;-81
2022/08/08 02:29:44;;;;;;;4.60;3.77;;;16.50;1.00;;;;;;5104551;27;20455;-81
2022/08/08 02:32:38;;;;;;;4.40;4.00;;;16.50;1.00;;;;;;5103789;27;20422;-77
2022/08/08 02:35:37;;;;;;;5.00;3.70;;;16.40;1.00;;;;;;5101964;27;20847;-81
2022/08/08 02:38:55;;;;;;;4.40;4.00;;;16.40;1.00;;;;;;5099991;27;20915;-80
2022/08/08 02:41:49;;;;;;;5.00;3.33;;;16.40;1.00;;;;;;5057487;28;20487;-77
2022/08/08 02:44:57;;;;;;;7.43;4.57;;;16.40;1.00;;;;;;5103386;27;20461;-80
2022/08/08 02:48:19;;;;;;;11.37;10.40;;;16.30;1.00;;;;;;5106452;27;20497;-77
2022/08/08 02:51:22;;;;;;;6.67;5.27;;;16.30;1.00;;;;;;5087267;27;20461;-77
2022/08/08 02:54:08;;;;;;;6.53;4.30;;;16.20;1.00;;;;;;5106128;27;20968;-78
2022/08/08 02:56:55;;;;;;;4.80;4.10;;;16.20;1.00;;;;;;5108653;27;21177;-78
2022/08/08 02:59:58;;;;;;;4.80;4.40;;;16.10;1.00;;;;;;5107568;27;20917;-78
2022/08/08 03:03:02;;;;;;;6.10;4.43;;;16.10;1.00;;;;;;5106682;27;20565;-82
2022/08/08 03:05:57;;;;;;;5.80;4.17;;;16.10;1.00;;;;;;5105960;28;20552;-82
2022/08/08 03:09:03;;;;;;;7.93;4.20;;;16.10;1.00;;;;;;5106700;27;20481;-81
2022/08/08 03:12:14;;;;;;;5.00;4.60;;;16.10;1.00;;;;;;5106856;27;20457;-78
2022/08/08 03:15:05;;;;;;;4.80;4.40;;;16.00;1.00;;;;;;5104186;27;20445;-81
2022/08/08 03:17:39;;;;;;;10.63;4.50;;;16.00;1.00;;;;;;5108292;27;20512;-82
2022/08/08 03:20:05;;;;;;;4.87;4.47;;;16.00;1.00;;;;;;5104994;27;20457;-81
2022/08/08 03:22:43;;;;;;;5.63;4.23;;;15.90;1.00;;;;;;5109129;27;20640;-81
2022/08/08 03:25:13;;;;;;;10.60;5.27;;;15.90;1.00;;;;;;5107097;27;20591;-77
2022/08/08 03:27:45;;;;;;;5.43;4.63;;;15.80;1.00;;;;;;5106749;27;20464;-81
2022/08/08 03:30:16;;;;;;;4.90;4.40;;;15.80;1.00;;;;;;5108046;27;20479;-82
2022/08/08 03:35:28;;;;;;;6.93;4.20;;;15.70;1.00;;;;;;5106820;27;20450;-80
2022/08/08 03:38:00;;;;;;;10.57;8.37;;;15.70;1.00;;;;;;5110092;27;20430;-82
2022/08/08 03:40:27;;;;;;;8.30;4.47;;;15.70;1.00;;;;;;5104255;27;20450;-81
2022/08/08 03:42:54;;;;;;;12.10;4.93;;;15.70;1.00;;;;;;5105924;27;20470;-81
2022/08/08 03:45:24;;;;;;;7.27;5.43;;;15.60;1.00;;;;;;5103853;27;20461;-82
2022/08/08 03:47:59;;;;;;;5.87;5.17;;;15.70;1.00;;;;;;5106231;27;20464;-82
2022/08/08 03:50:27;;;;;;;46.90;8.03;;;15.80;1.00;;;;;;5105498;27;20530;-77
2022/08/08 03:53:01;;;;;;;17.17;6.37;;;15.70;1.00;;;;;;5109056;27;20439;-78
2022/08/08 03:55:28;;;;;;;16.20;7.20;;;15.70;1.00;;;;;;5107440;27;20450;-77
2022/08/08 03:57:59;;;;;;;15.70;5.17;;;15.70;1.00;;;;;;5098615;27;20470;-81
2022/08/08 04:00:29;;;;;;;9.97;4.63;;;15.70;1.00;;;;;;5101492;27;20546;-80
2022/08/08 04:02:58;;;;;;;9.33;5.20;;;15.70;1.00;;;;;;5098481;27;20600;-79
2022/08/08 04:05:26;;;;;;;4.70;4.30;;;15.70;1.00;;;;;;5102874;27;20588;-77
2022/08/08 04:07:58;;;;;;;5.57;4.83;;;15.80;1.00;;;;;;5105046;27;20427;-77
2022/08/08 04:10:26;;;;;;;7.43;4.83;;;15.70;1.00;;;;;;5102865;27;20812;-81
2022/08/08 04:13:00;;;;;;;10.03;4.83;;;15.70;1.00;;;;;;5103736;27;20443;-77
2022/08/08 04:15:27;;;;;;;8.67;5.90;;;15.70;1.00;;;;;;5103990;27;20454;-77
2022/08/08 04:17:58;;;;;;;8.07;4.87;;;15.70;1.00;;;;;;5108552;27;20445;-77
2022/08/08 04:20:25;;;;;;;11.80;5.40;;;15.80;1.00;;;;;;5106551;27;20464;-82
2022/08/08 04:22:56;;;;;;;8.37;5.50;;;15.80;1.00;;;;;;5105214;27;20497;-78
2022/08/08 04:25:24;;;;;;;6.40;4.73;;;15.80;1.00;;;;;;5107435;27;20456;-82
2022/08/08 04:27:55;;;;;;;8.60;4.43;;;15.90;1.00;;;;;;5102977;27;20468;-81
2022/08/08 04:30:21;;;;;;;8.40;5.20;;;15.80;1.00;;;;;;5105692;27;20449;-78
2022/08/08 04:32:49;;;;;;;7.60;4.30;;;15.80;1.00;;;;;;5102349;27;20524;-78
2022/08/08 04:35:15;;;;;;;44.57;9.40;;;15.90;1.00;;;;;;5101794;27;20466;-78
2022/08/08 04:37:42;;;;;;;16.60;5.20;;;15.90;1.00;;;;;;5100346;27;20453;-78
2022/08/08 04:40:10;;;;;;;5.70;4.33;;;15.80;1.00;;;;;;5101493;27;20981;-77
2022/08/08 04:42:39;;;;;;;10.60;4.73;;;15.80;1.00;;;;;;5095725;27;20557;-78
2022/08/08 04:45:07;;;;;;;9.03;5.00;;;15.80;1.00;;;;;;5101229;27;20473;-78
2022/08/08 04:47:35;;;;;;;6.47;4.77;;;15.80;1.00;;;;;;5100228;27;20450;-78
2022/08/08 04:50:02;;;;;;;7.90;4.97;;;15.90;1.00;;;;;;5099264;27;20450;-78
2022/08/08 04:52:29;;;;;;;10.40;4.63;;;15.80;1.00;;;;;;5100168;27;20474;-82
2022/08/08 04:54:59;;;;;;;13.07;5.20;;;15.90;1.00;;;;;;5105113;28;20541;-78
2022/08/08 04:57:26;;;;;;;5.10;4.27;;;15.90;1.00;;;;;;5105967;27;20538;-77
2022/08/08 04:59:57;;;;;;;6.40;4.70;;;16.00;1.00;;;;;;5103173;27;20972;-83
2022/08/08 05:02:27;;;;;;;5.97;4.00;;;16.00;1.00;;;;;;5103918;27;20431;-85
2022/08/08 05:04:55;;;;;;;7.10;4.30;;;16.10;1.00;;;;;;5089825;27;20482;-78
2022/08/08 05:07:26;;;;;;;7.80;4.73;;;16.20;1.00;;;;;;5103993;27;20444;-79
2022/08/08 05:09:57;;;;;;;6.40;4.20;;;16.30;1.00;;;;;;5104928;27;20510;-78
2022/08/08 05:12:23;;;;;;;10.13;4.97;;;16.30;1.00;;;;;;5108760;27;20450;-79
2022/08/08 05:14:55;;;;;;;7.90;4.70;;;16.40;1.00;;;;;;5102175;27;20501;-78
2022/08/08 05:17:23;;;;;;;5.63;4.27;;;16.40;1.00;;;;;;5106172;27;20460;-78
2022/08/08 05:19:52;;;;;;;4.83;3.90;;;16.50;1.00;;;;;;5105829;27;20502;-79
2022/08/08 05:22:22;;;;;;;4.50;4.10;;;16.60;1.00;;;;;;5104598;27;20509;-78
2022/08/08 05:24:48;;;;;;;10.17;4.70;;;16.60;1.00;;;;;;5104097;27;20453;-79
2022/08/08 05:27:17;;;;;;;5.80;4.00;;;16.70;1.00;;;;;;5109385;27;20482;-79
2022/08/08 05:29:44;;;;;;;5.90;4.60;;;16.70;1.00;;;;;;5111519;28;20558;-78
2022/08/08 05:32:15;;;;;;;8.97;4.93;;;16.70;1.00;;;;;;5097213;27;20477;-78
2022/08/08 05:34:47;;;;;;;21.50;6.27;;;16.80;1.00;;;;;;5102703;27;20446;-78
2022/08/08 05:37:18;;;;;;;26.70;10.87;;;17.00;1.00;;;;;;5108280;27;20466;-79
2022/08/08 05:39:48;;;;;;;10.37;6.07;;;17.00;1.00;;;;;;5104741;27;20534;-76
2022/08/08 05:42:18;;;;;;;11.73;5.00;;;17.10;1.00;;;;;;5110200;27;20434;-76
2022/08/08 05:44:47;;;;;;;6.83;4.90;;;17.20;1.00;;;;;;5107711;27;20596;-79
2022/08/08 05:47:15;;;;;;;4.70;4.30;;;17.30;1.00;;;;;;5110536;27;20434;-78
2022/08/08 05:49:46;;;;;;;5.00;3.63;;;17.40;1.00;;;;;;5110628;27;20453;-79
2022/08/08 05:52:17;;;;;;;6.70;3.77;;;17.50;1.00;;;;;;5113439;27;20424;-79
2022/08/08 05:54:44;;;;;;;8.63;4.87;;;17.50;1.00;;;;;;5110045;27;20454;-79
2022/08/08 05:57:22;;;;;;;5.50;4.30;;;17.70;1.00;;;;;;5110128;27;20612;-79
2022/08/08 05:59:50;;;;;;;11.20;4.93;;;17.70;1.00;;;;;;5114596;27;20917;-79
2022/08/08 06:05:22;;;;;;;;;;;;;;;;;;;;;
2022/08/08 06:07:55;;;;;;;4.90;3.90;;;18.00;1.00;;;;;;5103397;27;40578;-79
2022/08/08 06:10:23;;;;;;;7.03;5.00;;;18.10;1.00;;;;;;5107032;27;20478;-79
2022/08/08 06:12:52;;;;;;;8.20;4.63;;;18.20;1.00;;;;;;5098373;27;20481;-78
2022/08/08 06:15:19;;;;;;;7.47;5.07;;;18.30;1.00;;;;;;5109084;28;20450;-79
2022/08/08 06:17:46;;;;;;;4.53;3.70;;;18.40;1.00;;;;;;5111230;27;20458;-76
2022/08/08 06:20:14;;;;;;;6.03;4.40;;;18.50;1.00;;;;;;5109400;27;21329;-78
2022/08/08 06:22:41;;;;;;;4.07;3.60;;;18.50;1.00;;;;;;5114122;27;20471;-79
2022/08/08 06:25:09;;;;;;;4.80;3.50;;;18.70;1.00;;;;;;5111269;27;20482;-79
2022/08/08 06:27:45;;;;;;;6.30;4.00;;;18.70;1.00;;;;;;5111171;27;20440;-76
2022/08/08 06:30:18;;;;;;;5.87;4.13;;;18.80;1.00;;;;;;5099438;27;20445;-79
2022/08/08 06:32:48;;;;;;;5.20;4.00;;;18.90;1.00;;;;;;5105559;28;20465;-78
2022/08/08 06:35:19;;;;;;;5.23;4.13;;;18.90;1.00;;;;;;5109022;27;20999;-78
2022/08/08 06:37:51;;;;;;;5.43;4.47;;;19.10;1.00;;;;;;5111345;27;20534;-80
2022/08/08 06:40:19;;;;;;;8.30;4.83;;;19.20;1.00;;;;;;5110063;27;21327;-80
2022/08/08 06:43:03;;;;;;;9.60;4.30;;;19.20;1.00;;;;;;5109678;27;20477;-80
2022/08/08 06:45:32;;;;;;;4.03;3.73;;;19.40;1.00;;;;;;5106573;27;20438;-78
2022/08/08 06:48:03;;;;;;;5.70;4.37;;;19.40;1.00;;;;;;5107352;27;20520;-79
2022/08/08 06:50:38;;;;;;;8.37;4.83;;;19.50;1.00;;;;;;5106339;27;20438;-77
2022/08/08 06:53:07;;;;;;;5.20;4.20;;;19.60;1.00;;;;;;5109454;28;20492;-77
2022/08/08 06:55:40;;;;;;;5.57;4.30;;;19.80;1.00;;;;;;5108771;27;20464;-77
2022/08/08 06:58:07;;;;;;;5.63;4.33;;;19.90;1.00;;;;;;5102528;27;20481;-81
2022/08/08 07:00:43;;;;;;;5.63;4.20;;;20.00;1.00;;;;;;5106265;27;20430;-81
2022/08/08 07:03:32;;;;;;;5.83;4.00;;;20.10;1.00;;;;;;5104132;27;20441;-79
2022/08/08 07:06:04;;;;;;;5.60;4.83;;;20.20;1.00;;;;;;5108787;27;20457;-78
2022/08/08 07:08:37;;;;;;;4.73;4.07;;;20.30;1.00;;;;;;5109907;27;20462;-78
2022/08/08 07:11:06;;;;;;;4.40;4.03;;;20.40;1.00;;;;;;5104646;27;20491;-78
2022/08/08 07:13:39;;;;;;;7.63;3.73;;;20.50;1.00;;;;;;5111880;27;20476;-82
2022/08/08 07:16:17;;;;;;;5.23;4.00;;;20.60;1.00;;;;;;5116025;27;20961;-81
2022/08/08 07:19:05;;;;;;;6.90;4.40;;;20.70;1.00;;;;;;5112416;27;21301;-80
2022/08/08 07:21:42;;;;;;;5.00;4.13;;;20.90;1.00;;;;;;5112235;27;20457;-81
2022/08/08 07:24:18;;;;;;;6.47;4.03;;;20.80;1.00;;;;;;5111038;27;20477;-82
2022/08/08 07:26:50;;;;;;;7.77;4.00;;;20.80;1.00;;;;;;5111947;27;20490;-80
2022/08/08 07:29:19;;;;;;;4.30;3.90;;;20.90;1.00;;;;;;5109621;27;20513;-78
2022/08/08 07:31:46;;;;;;;7.60;4.23;;;21.10;1.00;;;;;;5102683;27;20454;-77
2022/08/08 07:34:17;;;;;;;5.63;4.30;;;21.30;1.00;;;;;;5098176;27;20507;-79
2022/08/08 07:36:50;;;;;;;5.70;4.40;;;21.40;1.00;;;;;;5105547;27;20469;-78
2022/08/08 07:39:21;;;;;;;6.37;4.43;;;21.50;1.00;;;;;;5104672;27;20448;-78
2022/08/08 07:41:49;;;;;;;7.10;3.93;;;21.70;1.00;;;;;;5106688;27;20491;-77
2022/08/08 07:44:18;;;;;;;5.30;4.77;;;21.90;1.00;;;;;;5107540;27;20461;-78
2022/08/08 07:46:46;;;;;;;5.90;4.20;;;22.10;1.00;;;;;;5110747;27;20547;-80
2022/08/08 07:49:17;;;;;;;4.50;4.10;;;22.20;1.00;;;;;;5104268;27;20450;-78
2022/08/08 07:51:45;;;;;;;4.53;4.13;;;22.40;1.00;;;;;;5104644;27;20462;-80
2022/08/08 07:54:30;;;;;;;8.80;4.80;;;22.50;1.00;;;;;;5105422;27;20528;-80
2022/08/08 07:57:07;;;;;;;8.60;4.07;;;22.70;1.00;;;;;;5106669;27;20418;-79
2022/08/08 07:59:48;;;;;;;3.93;3.53;;;22.80;1.00;;;;;;5106334;27;20444;-79
2022/08/08 08:02:24;;;;;;;6.33;3.73;;;22.90;1.00;;;;;;5110442;27;20414;-80
2022/08/08 08:04:55;;;;;;;5.27;4.73;;;23.20;1.00;;;;;;5109131;28;20569;-80
2022/08/08 08:07:33;;;;;;;6.60;4.83;;;23.40;1.00;;;;;;5108368;27;21270;-78
2022/08/08 08:10:06;;;;;;;5.03;3.43;;;23.70;1.00;;;;;;5106616;27;20540;-85
2022/08/08 08:12:46;;;;;;;8.23;4.60;;;23.90;1.00;;;;;;5099761;27;20476;-79
2022/08/08 08:15:19;;;;;;;5.07;3.73;;;24.20;1.00;;;;;;5107455;27;20473;-79
2022/08/08 08:17:49;;;;;;;5.77;3.70;;;24.30;1.00;;;;;;5112337;27;20545;-89
2022/08/08 08:20:21;;;;;;;4.60;3.43;;;24.40;1.00;;;;;;5084108;27;20434;-81
2022/08/08 08:22:49;;;;;;;9.47;4.03;;;24.60;1.00;;;;;;5112495;27;20461;-79
2022/08/08 08:25:16;;;;;;;3.83;3.20;;;24.70;1.00;;;;;;5105799;27;20486;-79
2022/08/08 08:27:43;;;;;;;7.78;4.63;;;24.60;1.00;;;;;;5108941;27;20489;-79
2022/08/08 08:30:11;;;;;;;3.63;3.23;;;24.60;1.00;;;;;;5097241;27;20235;-71
2022/08/08 08:32:37;;;;;;;4.40;3.73;;;24.80;1.00;;;;;;5104132;27;20546;-69
2022/08/08 08:35:09;;;;;;;5.03;3.30;;;24.70;1.00;;;;;;5102135;27;20543;-68
2022/08/08 08:37:38;;;;;;;3.93;3.30;;;24.70;1.00;;;;;;5109945;27;20426;-80
2022/08/08 08:40:12;;;;;;;6.37;3.20;;;24.70;1.00;;;;;;5107339;27;20418;-82
2022/08/08 08:42:40;;;;;;;3.77;3.30;;;24.90;1.00;;;;;;5110304;27;20547;-83
2022/08/08 08:45:08;;;;;;;5.30;2.80;;;25.00;1.00;;;;;;5110107;27;20465;-83
2022/08/08 08:47:46;;;;;;;8.13;2.97;;;25.20;1.00;;;;;;5113779;27;20485;-81
2022/08/08 08:50:17;;;;;;;3.40;2.70;;;25.30;1.00;;;;;;5111845;27;20540;-84
2022/08/08 08:52:45;;;;;;;3.50;3.20;;;25.40;1.00;;;;;;5101827;27;20468;-80
2022/08/08 08:55:19;;;;;;;3.40;3.00;;;25.50;1.00;;;;;;5103750;27;20466;-84
2022/08/08 08:57:49;;;;;;;3.70;3.40;;;25.50;1.00;;;;;;5111098;27;20459;-82
2022/08/08 09:00:17;;;;;;;5.73;3.03;;;25.60;1.00;;;;;;5107363;27;20506;-78
2022/08/08 09:02:59;;;;;;;3.97;3.20;;;25.60;1.00;;;;;;5110681;27;20484;-85
2022/08/08 09:05:29;;;;;;;6.67;3.63;;;25.80;1.00;;;;;;5108637;27;21016;-80
2022/08/08 09:08:02;;;;;;;5.03;3.37;;;25.90;1.00;;;;;;5108822;27;20438;-84
2022/08/08 09:10:37;;;;;;;5.60;3.00;;;26.00;1.00;;;;;;5111269;27;20486;-79
2022/08/08 09:13:05;;;;;;;2.30;2.00;;;26.10;1.00;;;;;;5112336;27;20574;-79
2022/08/08 09:15:37;;;;;;;3.60;2.70;;;26.00;1.00;;;;;;5111452;28;20465;-81
2022/08/08 09:18:05;;;;;;;4.43;2.37;;;26.00;1.00;;;;;;5109244;27;20434;-83
2022/08/08 09:20:32;;;;;;;6.37;3.37;;;26.00;1.00;;;;;;5103901;28;20945;-81
2022/08/08 09:23:01;;;;;;;3.00;2.40;;;26.20;1.00;;;;;;5105164;28;20460;-83
2022/08/08 09:25:36;;;;;;;6.63;3.27;;;26.10;1.00;;;;;;5100028;27;20477;-85
2022/08/08 09:28:05;;;;;;;2.83;2.53;;;26.10;1.00;;;;;;5106859;27;20460;-85
2022/08/08 09:30:38;;;;;;;4.43;2.33;;;26.20;1.00;;;;;;5102805;27;20436;-84
2022/08/08 09:33:09;;;;;;;2.70;2.50;;;26.60;1.00;;;;;;5117210;27;20488;-85
2022/08/08 09:35:40;;;;;;;5.67;3.23;;;27.00;1.00;;;;;;5108123;27;24281;-81
2022/08/08 09:38:08;;;;;;;3.23;2.80;;;27.10;1.00;;;;;;5108032;27;20532;-86
2022/08/08 09:40:41;;;;;;;2.70;2.50;;;26.90;1.00;;;;;;5113334;27;20489;-81
2022/08/08 09:43:17;;;;;;;3.27;2.80;;;26.60;1.00;;;;;;5110092;27;20953;-81
2022/08/08 09:45:53;;;;;;;3.60;2.70;;;26.50;1.00;;;;;;5112558;27;20455;-82
2022/08/08 09:48:20;;;;;;;67.60;8.87;;;26.60;1.00;;;;;;5109079;27;20461;-80
2022/08/08 09:50:51;;;;;;;4.07;3.47;;;26.50;1.00;;;;;;5112641;27;20603;-80
2022/08/08 09:53:20;;;;;;;3.60;3.23;;;26.50;1.00;;;;;;5108368;27;20971;-85
2022/08/08 09:55:50;;;;;;;2.83;2.63;;;26.50;1.00;;;;;;5113699;27;20433;-83
2022/08/08 09:58:18;;;;;;;2.80;2.50;;;26.60;1.00;;;;;;5113418;27;20454;-80
2022/08/08 10:00:49;;;;;;;2.80;2.50;;;27.40;1.00;;;;;;5112844;27;20428;-80
2022/08/08 10:03:18;;;;;;;2.83;2.60;;;29.10;1.00;;;;;;5110690;27;20502;-87
2022/08/08 10:05:48;;;;;;;3.73;2.60;;;30.20;1.00;;;;;;5115201;27;20444;-86
2022/08/08 10:08:15;;;;;;;3.67;2.50;;;31.80;1.00;;;;;;5109943;27;20494;-81
2022/08/08 10:10:48;;;;;;;3.87;2.93;;;33.40;1.00;;;;;;5109716;27;20453;-81
2022/08/08 10:13:21;;;;;;;7.63;5.77;;;34.50;1.00;;;;;;5105375;27;20480;-82
2022/08/08 10:15:51;;;;;;;3.23;2.93;;;35.50;1.00;;;;;;5109615;27;21325;-82
2022/08/08 10:18:29;;;;;;;2.80;2.60;;;36.10;1.00;;;;;;5105112;27;20457;-86
2022/08/08 10:21:08;;;;;;;2.77;2.57;;;37.30;1.00;;;;;;5109942;27;20435;-82
2022/08/08 10:23:41;;;;;;;5.40;3.40;;;38.30;1.00;;;;;;5102200;27;20492;-83
2022/08/08 10:26:15;;;;;;;2.37;2.17;;;39.10;1.00;;;;;;5111476;27;20434;-83
2022/08/08 10:29:00;;;;;;;4.10;2.90;;;39.50;1.00;;;;;;5109960;27;20817;-83
2022/08/08 10:34:16;;;;;;;3.53;3.23;;;40.10;1.00;;;;;;5110261;27;20853;-82
2022/08/08 10:36:49;;;;;;;3.60;2.67;;;40.40;1.00;;;;;;5118385;27;20471;-86
2022/08/08 10:39:19;;;;;;;3.30;2.57;;;40.60;1.00;;;;;;5112063;27;20537;-81
2022/08/08 10:41:54;;;;;;;3.47;2.40;;;40.60;1.00;;;;;;5106613;27;20454;-84
2022/08/08 10:44:34;;;;;;;3.07;2.80;;;40.30;1.00;;;;;;5106061;27;20405;-85
2022/08/08 10:47:10;;;;;;;3.00;2.60;;;40.20;1.00;;;;;;5105798;27;20999;-83
2022/08/08 10:49:37;;;;;;;2.53;2.30;;;40.20;1.00;;;;;;5104189;27;20560;-82
2022/08/08 10:52:11;;;;;;;5.23;2.80;;;40.20;1.00;;;;;;5104282;27;20442;-82
2022/08/08 10:54:39;;;;;;;4.63;2.80;;;40.40;1.00;;;;;;5113976;27;20493;-82
2022/08/08 10:57:08;;;;;;;3.20;2.43;;;40.60;1.00;;;;;;5106485;27;20481;-82
2022/08/08 10:59:44;;;;;;;2.80;2.60;;;40.30;1.00;;;;;;5109004;27;20433;-82
2022/08/08 11:02:11;;;;;;;5.20;2.97;;;39.40;1.00;;;;;;5098817;27;20469;-84
2022/08/08 11:04:45;;;;;;;3.20;2.90;;;39.30;1.00;;;;;;5107829;27;20482;-84
2022/08/08 11:07:23;;;;;;;3.20;2.90;;;39.50;1.00;;;;;;5106843;27;20557;-85
2022/08/08 11:09:52;;;;;;;3.20;2.90;;;39.20;1.00;;;;;;5111409;27;20421;-81
2022/08/08 11:12:19;;;;;;;4.17;3.77;;;37.50;1.00;;;;;;5111321;27;20470;-82
2022/08/08 11:15:00;;;;;;;3.93;3.40;;;35.90;1.00;;;;;;5109939;27;20411;-82
2022/08/08 11:17:29;;;;;;;4.30;2.73;;;34.70;1.00;;;;;;5110340;27;20469;-84
2022/08/08 11:20:02;;;;;;;5.73;3.00;;;33.80;1.00;;;;;;5109825;27;20438;-83
2022/08/08 11:22:31;;;;;;;4.63;4.00;;;33.40;1.00;;;;;;5108766;27;21809;-83
2022/08/08 11:25:01;;;;;;;4.80;4.03;;;33.00;1.00;;;;;;5114145;27;21682;-83
2022/08/08 11:27:33;;;;;;;3.93;3.17;;;32.30;1.00;;;;;;5111018;27;20465;-81
2022/08/08 11:30:07;;;;;;;3.10;2.83;;;31.50;1.00;;;;;;5105323;27;20596;-81
2022/08/08 11:32:41;;;;;;;4.27;2.67;;;32.20;1.00;;;;;;5107293;27;20461;-86
2022/08/08 11:35:11;;;;;;;5.23;3.37;;;33.20;1.00;;;;;;5109216;27;20419;-82
2022/08/08 11:37:41;;;;;;;3.70;2.80;;;33.90;1.00;;;;;;5108458;27;20433;-86
2022/08/08 11:40:12;;;;;;;3.10;2.43;;;33.40;1.00;;;;;;5108491;27;20532;-81
2022/08/08 11:42:40;;;;;;;6.23;3.20;;;32.80;1.00;;;;;;5104182;27;20469;-81
2022/08/08 11:45:15;;;;;;;3.80;2.80;;;33.80;1.00;;;;;;5109281;27;20418;-83
2022/08/08 11:47:42;;;;;;;2.90;2.60;;;35.40;1.00;;;;;;5106959;27;20491;-82
2022/08/08 11:50:12;;;;;;;3.40;2.83;;;36.60;1.00;;;;;;5105850;27;20457;-83
2022/08/08 11:52:40;;;;;;;4.77;2.90;;;37.90;1.00;;;;;;5112149;28;20459;-84
2022/08/08 11:55:21;;;;;;;3.47;2.83;;;39.00;1.00;;;;;;5108072;28;20457;-81
2022/08/08 11:57:48;;;;;;;4.00;3.70;;;38.30;1.00;;;;;;5109203;27;20932;-82
2022/08/08 12:00:22;;;;;;;3.23;2.83;;;36.60;1.00;;;;;;5106134;27;20416;-86
2022/08/08 12:02:53;;;;;;;4.10;3.00;;;34.90;1.00;;;;;;5112062;27;20465;-80
2022/08/08 12:05:31;;;;;;;5.13;2.90;;;34.90;1.00;;;;;;5104665;27;20454;-85
2022/08/08 12:08:00;;;;;;;5.80;3.53;;;36.00;1.00;;;;;;5109408;27;20428;-83
2022/08/08 12:10:29;;;;;;;2.97;2.77;;;38.00;1.00;;;;;;5106922;27;20525;-85
2022/08/08 12:13:04;;;;;;;3.97;3.00;;;39.80;1.00;;;;;;5110144;28;20418;-81
2022/08/08 12:15:35;;;;;;;5.63;3.20;;;40.40;1.00;;;;;;5106132;27;21035;-82
2022/08/08 12:18:23;;;;;;;6.73;3.57;;;39.40;1.00;;;;;;5111054;27;20479;-81
2022/08/08 12:20:51;;;;;;;2.90;2.67;;;37.80;1.00;;;;;;5108512;28;20447;-87
2022/08/08 12:23:28;;;;;;;3.50;3.10;;;36.30;1.00;;;;;;5106090;27;20428;-87
2022/08/08 12:26:08;;;;;;;3.70;3.40;;;35.20;1.00;;;;;;5104617;27;20406;-81
2022/08/08 12:28:40;;;;;;;4.20;3.70;;;34.30;1.00;;;;;;5105317;27;21151;-80
2022/08/08 12:31:12;;;;;;;3.90;3.53;;;33.60;1.00;;;;;;5106541;27;20999;-82
2022/08/08 12:33:51;;;;;;;6.70;4.40;;;33.00;1.00;;;;;;5106713;27;20430;-82
2022/08/08 12:36:19;;;;;;;5.17;4.63;;;32.50;1.00;;;;;;5105645;27;20416;-79
2022/08/08 12:38:49;;;;;;;4.43;3.77;;;32.10;1.00;;;;;;5108860;27;20478;-82
2022/08/08 12:41:21;;;;;;;3.53;2.77;;;31.60;1.00;;;;;;5107057;27;20461;-81
2022/08/08 12:43:49;;;;;;;3.93;3.00;;;31.20;1.00;;;;;;5106389;27;20539;-81
2022/08/08 12:46:21;;;;;;;6.20;4.30;;;30.80;1.00;;;;;;5109426;27;21296;-81
2022/08/08 12:49:01;;;;;;;4.67;3.20;;;30.60;1.00;;;;;;5109241;27;21785;-81
2022/08/08 12:51:40;;;;;;;3.90;3.10;;;30.30;1.00;;;;;;5102517;27;20470;-81
2022/08/08 12:54:07;;;;;;;5.00;3.10;;;30.10;1.00;;;;;;5099469;27;20469;-81
2022/08/08 12:56:40;;;;;;;4.40;3.50;;;31.10;1.00;;;;;;5102664;27;22153;-80
2022/08/08 12:59:22;;;;;;;3.83;3.53;;;31.60;1.00;;;;;;5106153;27;20504;-81
2022/08/08 13:02:01;;;;;;;6.97;3.37;;;33.20;1.00;;;;;;5107219;27;20456;-81
2022/08/08 13:04:31;;;;;;;5.80;3.93;;;35.80;1.00;;;;;;5083989;28;21275;-81
2022/08/08 13:07:03;;;;;;;4.30;3.83;;;38.00;1.00;;;;;;5094855;27;20414;-81
2022/08/08 13:09:32;;;;;;;3.40;3.10;;;39.80;1.00;;;;;;5104408;27;20903;-82
2022/08/08 13:12:00;;;;;;;7.03;4.20;;;41.00;1.00;;;;;;5107427;27;20423;-80
2022/08/08 13:14:43;;;;;;;4.20;3.77;;;42.00;1.00;;;;;;5105809;27;20470;-81
2022/08/08 13:17:11;;;;;;;3.27;3.07;;;42.80;1.00;;;;;;5105393;27;20474;-84
2022/08/08 13:19:40;;;;;;;4.07;2.90;;;43.30;1.00;;;;;;5106920;27;20430;-80
2022/08/08 13:22:08;;;;;;;6.53;4.07;;;43.80;1.00;;;;;;5107425;27;20860;-80
2022/08/08 13:24:40;;;;;;;8.83;4.60;;;43.90;1.00;;;;;;5110764;27;20521;-81
2022/08/08 13:27:08;;;;;;;3.73;3.43;;;43.80;1.00;;;;;;5107972;27;20492;-82
2022/08/08 13:29:48;;;;;;;5.83;4.50;;;44.00;1.00;;;;;;5114548;27;20487;-80
2022/08/08 13:32:23;;;;;;;2.67;2.40;;;43.90;1.00;;;;;;5111416;27;20422;-79
2022/08/08 13:34:51;;;;;;;7.07;4.13;;;43.80;1.00;;;;;;5107541;27;20429;-81
2022/08/08 13:37:21;;;;;;;3.20;2.90;;;43.40;1.00;;;;;;5109645;27;20411;-82
2022/08/08 13:39:49;;;;;;;4.97;3.10;;;43.40;1.00;;;;;;5108371;27;20567;-80
2022/08/08 13:42:22;;;;;;;4.83;2.60;;;43.30;1.00;;;;;;5107513;27;20435;-80
2022/08/08 13:44:55;;;;;;;2.60;2.40;;;43.10;1.00;;;;;;5114519;27;20615;-80
2022/08/08 13:47:28;;;;;;;4.37;2.93;;;43.10;1.00;;;;;;5108923;27;20508;-82
2022/08/08 13:50:00;;;;;;;3.33;2.60;;;43.50;1.00;;;;;;5112343;27;20497;-80
2022/08/08 13:52:30;;;;;;;3.00;2.70;;;43.90;1.00;;;;;;5106738;27;20424;-81